Pasadena 2N

39° 08' 31"N, 76° 30' 27"W, Elevation 43 ft.
Eastern Time

Hourly observations for the last 72 hours

Date Time Temperature (°F) Humi-
dity

(%)
Wind
(mph)
Pressure Rain (in) Sun
(W/m2)
ET
(in)
Air Dew 6 Hour 1 Hr 3 Hr 6 Hr Day
Alt
(in)
Sea
Level

(mb)
Max Min
27 08:00 55.9 51.1 56.0 51.8 84 WNW 4 G 12 29.68 1005.1 0.00 14 0.006
27 07:00 55.1 51.0 86 WNW 4 G 13 29.67 1004.9 0.00 0 0.005
27 06:00 53.5 50.0 88 WNW 2 G 14 29.65 1004.1 0.00 0 0.005
27 05:00 53.5 50.0 88 W 4 G 11 29.64 1003.8 0.00 0 0.004
27 04:00 52.9 48.5 85 WNW 3 G 9 29.62 1003.1 0.00 0 0.003
27 03:00 52.0 47.3 84 NNW 3 G 14 29.61 1002.7 0.00 0 0.002
27 02:00 51.8 45.8 53.0 51.5 80 WNW 4 G 14 29.60 1002.4 0.00 0 0.001
27 01:00 51.7 45.1 78 NW 3 G 12 29.60 1002.3 0.00 0 0.000
27 00:00 51.6 44.6 77 WNW 4 G 14 29.59 1002.1 0.06 0 0.043
26 23:00 52.0 44.3 75 WNW 4 G 18 29.59 1002.2 0.06 0 0.042
26 22:00 52.3 44.3 74 WNW 3 G 15 29.60 1002.4 0.06 0 0.041
26 21:00 52.2 44.2 74 WNW 7 G 18 29.59 1002.2 0.06 0 0.040
26 20:00 53.0 44.6 63.3 53.0 73 W 6 G 14 29.58 1001.9 0.06 0 0.039
26 19:00 53.6 45.5 74 W 5 G 17 29.58 1001.6 0.06 0 0.038
26 18:00 54.3 46.2 74 W 7 G 24 29.57 1001.4 0.06 0 0.036
26 17:00 55.6 47.1 73 W 7 G 21 29.55 1000.6 0.06 19 0.034
26 16:00 57.7 48.0 70 WNW 5 G 23 29.52 999.7 0.06 67 0.030
26 15:00 60.3 50.5 70 WNW 5 G 21 29.49 998.7 0.06 162 0.021
26 14:00 62.5 52.6 66.2 59.6 70 W 4 G 20 29.48 998.2 0.01 0.06 642 0.015
26 13:00 63.6 56.3 77 W 3 G 16 29.48 998.3 0.06 139 0.008
26 12:00 63.8 57.9 81 WNW 3 G 16 29.48 998.2 0.06 167 0.004
26 11:00 63.8 59.2 85 W 1 G 10 29.49 998.6 0.01 0.06 109 0.002
26 10:00 61.1 59.1 93 W 3 G 15 29.49 998.7 0.06 69 0.001
26 09:00 60.1 59.2 97 W 2 G 9 29.50 999.2 0.01 0.06 32 0.000
26 08:00 59.7 58.8 60.8 59.3 97 NW 0 G 3 29.51 999.5 0.02 0.05 33 0.000
26 07:00 59.7 58.8 97 WNW 0 G 9 29.51 999.5 0.05 0 0.000
26 06:00 60.0 59.1 97 W 0 G 1 29.52 999.6 0.05 0 0.000
26 05:00 60.3 59.4 97 WNW 0 G 4 29.52 999.8 0.02 0.05 0 0.000
26 04:00 60.3 59.4 97 WNW 0 G 2 29.52 999.8 0.05 0 0.000
26 03:00 60.6 59.7 97 NNE 0 G 2 29.53 1000.2 0.02 0.05 0 0.000
26 02:00 60.5 59.4 65.5 60.1 96 ENE 0 G 2 29.55 1000.7 0.01 0.63 1.80 0.03 0 0.000
26 01:00 61.0 59.9 96 NNE 1 G 5 29.59 1002.0 0.02 0.02 0 0.000
26 00:00 60.5 59.4 96 ENE 0 G 4 29.62 1002.9 0.60 1.82 0 0.054
25 23:00 62.5 61.3 96 WNW 0 G 2 29.69 1005.3 0.70 1.17 1.22 0 0.054
25 22:00 64.8 63.3 95 W 1 G 4 29.69 1005.6 0.25 0.52 0 0.054
25 21:00 65.4 63.9 95 Calm 29.70 1005.9 0.22 0.27 0 0.054
25 20:00 65.4 63.6 79.3 65.4 94 Calm 29.70 1005.9 0.01 0.05 0.05 0.05 0 0.054
25 19:00 66.0 63.6 92 W 0 G 2 29.70 1005.7 0.04 0.04 0 0.053
25 18:00 72.0 67.6 86 SSE 7 G 15 29.71 1006.1 0.00 0 0.052
25 17:00 73.3 67.5 82 SE 2 G 9 29.73 1006.8 0.00 49 0.049
25 16:00 74.8 67.5 78 SSE 3 G 10 29.75 1007.5 0.00 327 0.045
25 15:00 76.0 66.7 73 ESE 3 G 11 29.76 1007.8 0.00 67 0.037
25 14:00 79.2 67.7 80.3 62.2 68 SSE 3 G 9 29.79 1008.7 0.00 649 0.022
25 13:00 78.0 67.4 70 SSW 3 G 16 29.83 1010.0 0.00 589 0.008
25 12:00 74.3 65.1 73 SSW 3 G 10 29.86 1011.3 0.00 54 0.006
25 11:00 70.9 64.4 80 SE 3 G 16 29.88 1012.0 0.00 37 0.004
25 10:00 67.5 63.8 88 S 1 G 10 29.91 1013.0 0.00 56 0.003
25 09:00 63.6 61.2 92 S 3 G 10 29.93 1013.5 0.00 53 0.002
25 08:00 62.2 60.2 63.1 61.2 93 SSE 1 G 7 29.94 1013.9 0.00 16 0.002
25 07:00 61.8 59.8 93 S 1 G 8 29.94 1013.9 0.00 0 0.002
25 06:00 61.7 59.7 93 SSE 0 G 8 29.95 1014.4 0.00 0 0.002
25 05:00 63.0 60.3 91 SSE 1 G 10 29.96 1014.5 0.00 0 0.002
25 04:00 62.7 59.7 90 S 2 G 12 29.97 1014.8 0.00 0 0.002
25 03:00 61.6 58.6 90 SSE 0 G 6 29.97 1015.1 0.00 0 0.002
25 02:00 62.2 58.6 63.5 57.5 88 SSE 0 G 8 30.00 1015.8 0.00 0 0.001
25 01:00 63.5 58.9 85 SSE 2 G 9 30.00 1015.8 0.00 0 0.000
25 00:00 62.0 58.7 89 S 2 G 8 30.01 1016.2 0.00 0 0.031
24 23:00 61.5 59.2 92 SSE 0 G 5 30.02 1016.7 0.00 0 0.031
24 22:00 62.7 59.7 90 S 1 G 9 30.04 1017.2 0.00 0 0.031
24 21:00 59.6 57.6 93 SE 1 G 9 30.04 1017.3 0.00 0 0.031
24 20:00 57.9 54.7 64.2 57.9 89 S 0 G 1 30.06 1017.8 0.00 0 0.031
24 19:00 60.1 55.6 85 S 0 G 1 30.06 1017.9 0.00 0 0.031
24 18:00 62.6 56.0 79 SE 0 G 2 30.07 1018.3 0.00 9 0.030
24 17:00 63.6 54.4 72 S 2 G 6 30.08 1018.7 0.00 46 0.028
24 16:00 64.2 53.4 68 S 1 G 8 30.09 1019.1 0.00 330 0.024
24 15:00 63.7 52.1 66 SE 4 G 10 30.10 1019.4 0.00 88 0.019
24 14:00 62.9 51.8 63.2 51.8 67 SE 2 G 8 30.12 1020.1 0.00 299 0.012
24 13:00 61.7 52.2 71 ESE 0 G 6 30.16 1021.3 0.00 271 0.006
24 12:00 60.0 52.8 77 SE 2 G 7 30.16 1021.5 0.00 274 0.002
24 11:00 56.1 51.7 85 ESE 0 G 2 30.17 1021.8 0.00 84 0.001
24 10:00 53.7 51.4 92 Calm 30.19 1022.5 0.00 39 0.000
24 09:00 52.6 50.6 93 Calm 30.18 1022.1 0.00 19 0.000

Data generated by WxSolution Version 1.9.1.8, Build 2020.02.16.